Ely Airport Yelland Field Ely US
ICAO: KELY
IATA: ELY
Category: Medium
Scheduled Services: No

Elevation: 6259 ft
TransAlt. 18000 ft.

Airport Communications:
ASOS:120.625
SALT LAKE CNTR:133.45
CTAF/UNICOM:122.8

KELY Zoom In..

If you have problems with the map follow the link
https://www.worldairports.se/pages/airport.php?
ICAO=KELY

Runways:

(A) RW 12 length 4825 ft width 60 ft
---- / hdg 127

(B) RW 18 length 6018 ft width 150 ft
---- / hdg 180

(C) RW 30 length 4825 ft width 60 ft
---- / hdg 307

(D) RW 36 length 6018 ft width 150 ft
---- / hdg 360

Location; KELY
Day. 14 / Time. 10.53 Zulu
* Altimeter: 30.51
* Temperature: -07° c. -19.4°f.
* Wind from: 170° Speed 10 kn.
Dewpoint: -16° c.
Visibility: 10 Statute Miles.
Clouds: Clear (automated report).

KELY 141053Z AUTO 17010KT 10SM CLR M07/M16 A3051 RMK AO2 SLP330 T10671161


Wind From 170°
Speed 10 kn.

 
 
jpsmedia.com for Web Design worldairports.se 2018   terms of use